sensor_id;sensor_type;location;lat;lon;timestamp;pressure;altitude;pressure_sealevel;temperature;humidity
48077;BME280;33854;57.708;12.008;2023-02-28T00:00:32;99327.38;;;-0.79;100.00
48077;BME280;33854;57.708;12.008;2023-02-28T00:02:58;99282.19;;;-0.81;100.00
48077;BME280;33854;57.708;12.008;2023-02-28T00:05:25;99266.81;;;-0.81;100.00
48077;BME280;33854;57.708;12.008;2023-02-28T00:07:51;99271.09;;;-0.82;100.00
48077;BME280;33854;57.708;12.008;2023-02-28T00:10:19;99175.75;;;-0.93;100.00
48077;BME280;33854;57.708;12.008;2023-02-28T00:12:47;99155.13;;;-0.88;100.00
48077;BME280;33854;57.708;12.008;2023-02-28T00:15:12;99139.00;;;-0.92;100.00
48077;BME280;33854;57.708;12.008;2023-02-28T00:17:38;99172.25;;;-0.90;100.00
48077;BME280;33854;57.708;12.008;2023-02-28T00:20:05;99176.66;;;-0.95;100.00
48077;BME280;33854;57.708;12.008;2023-02-28T00:22:34;99159.47;;;-0.90;100.00
48077;BME280;33854;57.708;12.008;2023-02-28T00:24:59;99142.41;;;-0.91;100.00
48077;BME280;33854;57.708;12.008;2023-02-28T00:27:25;99111.72;;;-0.93;100.00
48077;BME280;33854;57.708;12.008;2023-02-28T00:29:50;99147.28;;;-0.82;100.00
48077;BME280;33854;57.708;12.008;2023-02-28T00:32:16;99158.47;;;-0.85;100.00
48077;BME280;33854;57.708;12.008;2023-02-28T00:34:42;99175.66;;;-0.90;100.00
48077;BME280;33854;57.708;12.008;2023-02-28T00:37:09;99165.50;;;-0.93;100.00
48077;BME280;33854;57.708;12.008;2023-02-28T00:39:37;99187.81;;;-0.98;100.00
48077;BME280;33854;57.708;12.008;2023-02-28T00:42:03;99199.84;;;-1.01;100.00
48077;BME280;33854;57.708;12.008;2023-02-28T00:44:30;99231.41;;;-1.01;100.00
48077;BME280;33854;57.708;12.008;2023-02-28T00:46:56;99210.97;;;-1.02;100.00
48077;BME280;33854;57.708;12.008;2023-02-28T00:49:22;99200.72;;;-1.02;100.00
48077;BME280;33854;57.708;12.008;2023-02-28T00:51:48;99210.22;;;-1.07;100.00
48077;BME280;33854;57.708;12.008;2023-02-28T00:54:14;99223.69;;;-0.99;100.00
48077;BME280;33854;57.708;12.008;2023-02-28T00:56:39;99222.84;;;-1.00;100.00
48077;BME280;33854;57.708;12.008;2023-02-28T00:59:04;99203.41;;;-1.07;100.00
48077;BME280;33854;57.708;12.008;2023-02-28T01:01:30;99184.75;;;-1.12;100.00
48077;BME280;33854;57.708;12.008;2023-02-28T01:03:56;99207.94;;;-1.20;100.00
48077;BME280;33854;57.708;12.008;2023-02-28T01:06:21;99215.56;;;-1.17;100.00
48077;BME280;33854;57.708;12.008;2023-02-28T01:08:47;99200.94;;;-1.11;100.00
48077;BME280;33854;57.708;12.008;2023-02-28T01:11:15;99187.41;;;-1.17;100.00
48077;BME280;33854;57.708;12.008;2023-02-28T01:13:42;99235.31;;;-1.22;100.00
48077;BME280;33854;57.708;12.008;2023-02-28T01:16:07;99222.59;;;-1.26;100.00
48077;BME280;33854;57.708;12.008;2023-02-28T01:18:33;99164.56;;;-1.24;100.00
48077;BME280;33854;57.708;12.008;2023-02-28T01:21:03;99174.78;;;-1.24;100.00
48077;BME280;33854;57.708;12.008;2023-02-28T01:23:28;99186.69;;;-1.23;100.00
48077;BME280;33854;57.708;12.008;2023-02-28T01:25:54;99179.06;;;-1.25;100.00
48077;BME280;33854;57.708;12.008;2023-02-28T01:28:20;99150.91;;;-1.25;100.00
48077;BME280;33854;57.708;12.008;2023-02-28T01:30:50;99027.22;;;-1.25;100.00
48077;BME280;33854;57.708;12.008;2023-02-28T01:33:16;99109.38;;;-1.36;100.00
48077;BME280;33854;57.708;12.008;2023-02-28T01:35:41;99132.34;;;-1.33;100.00
48077;BME280;33854;57.708;12.008;2023-02-28T01:38:07;99119.75;;;-1.42;100.00
48077;BME280;33854;57.708;12.008;2023-02-28T01:40:32;99103.69;;;-1.48;100.00
48077;BME280;33854;57.708;12.008;2023-02-28T01:42:58;99113.78;;;-1.42;100.00
48077;BME280;33854;57.708;12.008;2023-02-28T01:45:27;99162.94;;;-1.28;100.00
48077;BME280;33854;57.708;12.008;2023-02-28T01:48:05;99164.84;;;-1.38;100.00
48077;BME280;33854;57.708;12.008;2023-02-28T01:50:35;99156.94;;;-1.27;100.00
48077;BME280;33854;57.708;12.008;2023-02-28T01:53:04;99121.25;;;-1.33;100.00
48077;BME280;33854;57.708;12.008;2023-02-28T01:55:31;99134.25;;;-1.41;100.00
48077;BME280;33854;57.708;12.008;2023-02-28T01:58:00;99130.84;;;-1.41;100.00
48077;BME280;33854;57.708;12.008;2023-02-28T02:00:28;99129.25;;;-1.47;100.00
48077;BME280;33854;57.708;12.008;2023-02-28T02:02:58;99081.44;;;-1.45;100.00
48077;BME280;33854;57.708;12.008;2023-02-28T02:05:27;99087.34;;;-1.43;100.00
48077;BME280;33854;57.708;12.008;2023-02-28T02:08:15;99085.78;;;-1.47;100.00
48077;BME280;33854;57.708;12.008;2023-02-28T02:10:46;99094.44;;;-1.54;100.00
48077;BME280;33854;57.708;12.008;2023-02-28T02:35:25;99066.50;;;-1.61;100.00
48077;BME280;33854;57.708;12.008;2023-02-28T02:40:35;99019.91;;;-1.74;100.00
48077;BME280;33854;57.708;12.008;2023-02-28T02:43:07;99028.38;;;-1.72;100.00
48077;BME280;33854;57.708;12.008;2023-02-28T02:45:42;98949.06;;;-1.70;100.00
48077;BME280;33854;57.708;12.008;2023-02-28T02:48:13;98937.06;;;-1.68;100.00
48077;BME280;33854;57.708;12.008;2023-02-28T02:50:44;98937.75;;;-1.62;100.00
48077;BME280;33854;57.708;12.008;2023-02-28T02:53:13;98931.72;;;-1.59;100.00
48077;BME280;33854;57.708;12.008;2023-02-28T02:55:44;98894.91;;;-1.54;100.00
48077;BME280;33854;57.708;12.008;2023-02-28T02:58:14;98884.75;;;-1.57;100.00
48077;BME280;33854;57.708;12.008;2023-02-28T03:00:54;98869.47;;;-1.58;100.00
48077;BME280;33854;57.708;12.008;2023-02-28T03:03:21;98893.50;;;-1.64;100.00
48077;BME280;33854;57.708;12.008;2023-02-28T03:05:55;98894.38;;;-1.65;100.00
48077;BME280;33854;57.708;12.008;2023-02-28T03:08:21;98903.88;;;-1.70;100.00
48077;BME280;33854;57.708;12.008;2023-02-28T03:10:52;98912.09;;;-1.91;100.00
48077;BME280;33854;57.708;12.008;2023-02-28T03:19:33;99051.84;;;-1.92;100.00
48077;BME280;33854;57.708;12.008;2023-02-28T03:24:57;99026.06;;;-1.81;100.00
48077;BME280;33854;57.708;12.008;2023-02-28T03:27:30;99002.34;;;-1.89;100.00
48077;BME280;33854;57.708;12.008;2023-02-28T03:30:10;99010.72;;;-1.81;100.00
48077;BME280;33854;57.708;12.008;2023-02-28T03:32:42;99020.03;;;-1.80;100.00
48077;BME280;33854;57.708;12.008;2023-02-28T03:35:17;99022.66;;;-1.83;100.00
48077;BME280;33854;57.708;12.008;2023-02-28T03:37:49;99008.16;;;-1.83;100.00
48077;BME280;33854;57.708;12.008;2023-02-28T03:40:17;98992.84;;;-1.83;100.00
48077;BME280;33854;57.708;12.008;2023-02-28T03:42:48;98981.75;;;-1.83;100.00
48077;BME280;33854;57.708;12.008;2023-02-28T03:48:09;99027.03;;;-1.87;100.00
48077;BME280;33854;57.708;12.008;2023-02-28T03:50:40;99044.94;;;-1.88;100.00
48077;BME280;33854;57.708;12.008;2023-02-28T03:58:35;99051.22;;;-2.01;100.00
48077;BME280;33854;57.708;12.008;2023-02-28T04:01:09;99053.31;;;-2.18;100.00
48077;BME280;33854;57.708;12.008;2023-02-28T04:03:37;99066.75;;;-2.10;100.00
48077;BME280;33854;57.708;12.008;2023-02-28T04:06:06;99059.13;;;-2.12;100.00
48077;BME280;33854;57.708;12.008;2023-02-28T04:08:32;99050.66;;;-2.14;100.00
48077;BME280;33854;57.708;12.008;2023-02-28T04:11:02;99050.66;;;-2.14;100.00
48077;BME280;33854;57.708;12.008;2023-02-28T04:13:29;99043.72;;;-2.09;100.00
48077;BME280;33854;57.708;12.008;2023-02-28T04:15:54;99042.84;;;-2.08;100.00
48077;BME280;33854;57.708;12.008;2023-02-28T04:18:20;99015.56;;;-2.07;100.00
48077;BME280;33854;57.708;12.008;2023-02-28T04:20:45;99019.78;;;-2.06;100.00
48077;BME280;33854;57.708;12.008;2023-02-28T04:23:11;99004.69;;;-2.15;100.00
48077;BME280;33854;57.708;12.008;2023-02-28T04:25:36;98984.41;;;-2.23;100.00
48077;BME280;33854;57.708;12.008;2023-02-28T04:28:01;98992.72;;;-2.15;100.00
48077;BME280;33854;57.708;12.008;2023-02-28T04:30:27;98986.81;;;-2.15;100.00
48077;BME280;33854;57.708;12.008;2023-02-28T04:32:52;98986.03;;;-2.19;100.00
48077;BME280;33854;57.708;12.008;2023-02-28T04:35:18;98980.13;;;-2.22;100.00
48077;BME280;33854;57.708;12.008;2023-02-28T04:37:43;98963.97;;;-2.23;100.00
48077;BME280;33854;57.708;12.008;2023-02-28T04:40:09;98963.19;;;-2.26;100.00
48077;BME280;33854;57.708;12.008;2023-02-28T04:42:34;98971.75;;;-2.27;100.00
48077;BME280;33854;57.708;12.008;2023-02-28T04:45:01;98987.88;;;-2.25;100.00
48077;BME280;33854;57.708;12.008;2023-02-28T04:47:27;98991.34;;;-2.28;100.00
48077;BME280;33854;57.708;12.008;2023-02-28T04:49:53;98991.28;;;-2.25;100.00
48077;BME280;33854;57.708;12.008;2023-02-28T04:52:18;98987.00;;;-2.24;100.00
48077;BME280;33854;57.708;12.008;2023-02-28T04:54:44;98993.09;;;-2.32;100.00
48077;BME280;33854;57.708;12.008;2023-02-28T04:57:10;99005.88;;;-2.32;100.00
48077;BME280;33854;57.708;12.008;2023-02-28T04:59:35;98993.28;;;-2.39;100.00
48077;BME280;33854;57.708;12.008;2023-02-28T05:02:01;99000.75;;;-2.30;100.00
48077;BME280;33854;57.708;12.008;2023-02-28T05:04:32;98979.00;;;-2.48;100.00
48077;BME280;33854;57.708;12.008;2023-02-28T05:06:59;98999.19;;;-2.37;100.00
48077;BME280;33854;57.708;12.008;2023-02-28T05:09:25;99002.72;;;-2.43;100.00
48077;BME280;33854;57.708;12.008;2023-02-28T05:11:50;99006.19;;;-2.45;100.00
48077;BME280;33854;57.708;12.008;2023-02-28T05:14:16;99007.78;;;-2.40;100.00
48077;BME280;33854;57.708;12.008;2023-02-28T05:16:41;98990.69;;;-2.38;100.00
48077;BME280;33854;57.708;12.008;2023-02-28T05:19:07;98973.84;;;-2.46;100.00
48077;BME280;33854;57.708;12.008;2023-02-28T05:21:39;98978.88;;;-2.42;100.00
48077;BME280;33854;57.708;12.008;2023-02-28T05:24:09;98985.63;;;-2.41;100.00
48077;BME280;33854;57.708;12.008;2023-02-28T05:26:36;98985.63;;;-2.41;100.00
48077;BME280;33854;57.708;12.008;2023-02-28T05:29:02;98987.50;;;-2.47;100.00
48077;BME280;33854;57.708;12.008;2023-02-28T05:31:28;99007.84;;;-2.43;100.00
48077;BME280;33854;57.708;12.008;2023-02-28T05:33:53;99014.59;;;-2.40;100.00
48077;BME280;33854;57.708;12.008;2023-02-28T05:36:19;99020.47;;;-2.37;100.00
48077;BME280;33854;57.708;12.008;2023-02-28T05:38:49;99011.94;;;-2.36;100.00
48077;BME280;33854;57.708;12.008;2023-02-28T05:41:15;98992.31;;;-2.34;100.00
48077;BME280;33854;57.708;12.008;2023-02-28T05:43:41;98976.91;;;-2.31;100.00
48077;BME280;33854;57.708;12.008;2023-02-28T05:46:08;98949.69;;;-2.32;100.00
48077;BME280;33854;57.708;12.008;2023-02-28T05:48:35;98936.94;;;-2.33;100.00
48077;BME280;33854;57.708;12.008;2023-02-28T05:51:01;98943.06;;;-2.40;100.00
48077;BME280;33854;57.708;12.008;2023-02-28T05:53:27;98948.22;;;-2.43;100.00
48077;BME280;33854;57.708;12.008;2023-02-28T05:55:53;98949.94;;;-2.44;100.00
48077;BME280;33854;57.708;12.008;2023-02-28T05:58:18;98945.72;;;-2.45;100.00
48077;BME280;33854;57.708;12.008;2023-02-28T06:00:44;98954.31;;;-2.47;100.00
48077;BME280;33854;57.708;12.008;2023-02-28T06:03:09;98960.28;;;-2.48;100.00
48077;BME280;33854;57.708;12.008;2023-02-28T06:05:34;98962.75;;;-2.45;100.00
48077;BME280;33854;57.708;12.008;2023-02-28T06:08:00;98947.63;;;-2.54;100.00
48077;BME280;33854;57.708;12.008;2023-02-28T06:10:26;98962.78;;;-2.47;100.00
48077;BME280;33854;57.708;12.008;2023-02-28T06:12:51;98965.19;;;-2.41;100.00
48077;BME280;33854;57.708;12.008;2023-02-28T06:15:16;98962.66;;;-2.41;100.00
48077;BME280;33854;57.708;12.008;2023-02-28T06:17:43;98939.38;;;-2.65;100.00
48077;BME280;33854;57.708;12.008;2023-02-28T06:20:11;98989.84;;;-2.38;100.00
48077;BME280;33854;57.708;12.008;2023-02-28T06:22:38;98998.28;;;-2.35;100.00
48077;BME280;33854;57.708;12.008;2023-02-28T06:25:05;99006.00;;;-2.36;100.00
48077;BME280;33854;57.708;12.008;2023-02-28T06:27:32;99017.00;;;-2.34;100.00
48077;BME280;33854;57.708;12.008;2023-02-28T06:29:57;99035.63;;;-2.29;100.00
48077;BME280;33854;57.708;12.008;2023-02-28T06:32:23;99041.53;;;-2.25;100.00
48077;BME280;33854;57.708;12.008;2023-02-28T06:34:49;99049.19;;;-2.24;100.00
48077;BME280;33854;57.708;12.008;2023-02-28T06:37:15;99069.50;;;-2.19;100.00
48077;BME280;33854;57.708;12.008;2023-02-28T06:39:41;99079.84;;;-2.25;100.00
48077;BME280;33854;57.708;12.008;2023-02-28T06:42:06;99099.31;;;-2.18;100.00
48077;BME280;33854;57.708;12.008;2023-02-28T06:44:32;99118.66;;;-2.07;100.00
48077;BME280;33854;57.708;12.008;2023-02-28T06:47:02;99131.34;;;-2.02;100.00
48077;BME280;33854;57.708;12.008;2023-02-28T06:49:32;99146.50;;;-1.95;100.00
48077;BME280;33854;57.708;12.008;2023-02-28T06:51:58;99164.28;;;-1.89;100.00
48077;BME280;33854;57.708;12.008;2023-02-28T06:54:23;99174.38;;;-1.83;100.00
48077;BME280;33854;57.708;12.008;2023-02-28T06:56:49;99203.31;;;-1.81;100.00
48077;BME280;33854;57.708;12.008;2023-02-28T06:59:15;99224.63;;;-1.80;100.00
48077;BME280;33854;57.708;12.008;2023-02-28T07:01:41;99247.56;;;-1.77;100.00
48077;BME280;33854;57.708;12.008;2023-02-28T07:04:06;99267.16;;;-1.76;100.00
48077;BME280;33854;57.708;12.008;2023-02-28T07:06:32;99275.81;;;-1.82;100.00
48077;BME280;33854;57.708;12.008;2023-02-28T07:08:57;99301.16;;;-1.71;100.00
48077;BME280;33854;57.708;12.008;2023-02-28T07:11:25;99323.19;;;-1.64;100.00
48077;BME280;33854;57.708;12.008;2023-02-28T07:13:55;99333.31;;;-1.58;100.00
48077;BME280;33854;57.708;12.008;2023-02-28T07:16:21;99360.41;;;-1.48;100.00
48077;BME280;33854;57.708;12.008;2023-02-28T07:18:47;99385.06;;;-1.44;100.00
48077;BME280;33854;57.708;12.008;2023-02-28T07:21:13;99415.63;;;-1.38;100.00
48077;BME280;33854;57.708;12.008;2023-02-28T07:23:39;99442.75;;;-1.28;100.00
48077;BME280;33854;57.708;12.008;2023-02-28T07:26:06;99458.81;;;-1.20;100.00
48077;BME280;33854;57.708;12.008;2023-02-28T07:28:32;99480.94;;;-1.17;100.00
48077;BME280;33854;57.708;12.008;2023-02-28T07:31:05;99498.72;;;-1.09;100.00
48077;BME280;33854;57.708;12.008;2023-02-28T07:33:31;99508.00;;;-1.04;100.00
48077;BME280;33854;57.708;12.008;2023-02-28T07:36:05;99523.22;;;-0.96;100.00
48077;BME280;33854;57.708;12.008;2023-02-28T07:38:34;99533.34;;;-0.90;100.00
48077;BME280;33854;57.708;12.008;2023-02-28T07:41:00;99551.19;;;-0.84;100.00
48077;BME280;33854;57.708;12.008;2023-02-28T07:43:25;99557.00;;;-0.76;100.00
48077;BME280;33854;57.708;12.008;2023-02-28T07:45:50;99525.28;;;-0.71;100.00
48077;BME280;33854;57.708;12.008;2023-02-28T07:48:16;99502.06;;;-0.63;100.00
48077;BME280;33854;57.708;12.008;2023-02-28T07:50:41;99475.50;;;-0.57;100.00
48077;BME280;33854;57.708;12.008;2023-02-28T07:53:07;99459.94;;;-0.50;100.00
48077;BME280;33854;57.708;12.008;2023-02-28T07:55:32;99402.38;;;-0.72;100.00
48077;BME280;33854;57.708;12.008;2023-02-28T07:57:58;99409.34;;;-0.42;100.00
48077;BME280;33854;57.708;12.008;2023-02-28T08:00:23;99353.03;;;-0.45;100.00
48077;BME280;33854;57.708;12.008;2023-02-28T08:02:49;99333.88;;;-0.29;100.00
48077;BME280;33854;57.708;12.008;2023-02-28T08:05:15;99280.75;;;-0.24;100.00
48077;BME280;33854;57.708;12.008;2023-02-28T08:07:40;99244.66;;;-0.16;100.00
48077;BME280;33854;57.708;12.008;2023-02-28T08:10:06;99219.56;;;-0.05;100.00
48077;BME280;33854;57.708;12.008;2023-02-28T08:12:33;99174.31;;;-0.06;100.00
48077;BME280;33854;57.708;12.008;2023-02-28T08:14:59;99168.81;;;0.06;100.00
48077;BME280;33854;57.708;12.008;2023-02-28T08:17:24;99119.09;;;-0.18;100.00
48077;BME280;33854;57.708;12.008;2023-02-28T08:19:50;99120.75;;;0.13;100.00
48077;BME280;33854;57.708;12.008;2023-02-28T08:22:15;99085.19;;;0.00;100.00
48077;BME280;33854;57.708;12.008;2023-02-28T08:24:41;99085.25;;;0.27;100.00
48077;BME280;33854;57.708;12.008;2023-02-28T08:27:08;99052.41;;;0.38;100.00
48077;BME280;33854;57.708;12.008;2023-02-28T08:29:33;99035.16;;;0.43;100.00
48077;BME280;33854;57.708;12.008;2023-02-28T08:31:59;99069.13;;;0.51;100.00
48077;BME280;33854;57.708;12.008;2023-02-28T08:34:24;99073.50;;;0.47;100.00
48077;BME280;33854;57.708;12.008;2023-02-28T08:36:49;99077.56;;;0.54;100.00
48077;BME280;33854;57.708;12.008;2023-02-28T08:39:15;99084.22;;;0.60;100.00
48077;BME280;33854;57.708;12.008;2023-02-28T08:41:42;99077.13;;;0.68;100.00
48077;BME280;33854;57.708;12.008;2023-02-28T08:44:09;99056.00;;;0.60;100.00
48077;BME280;33854;57.708;12.008;2023-02-28T08:46:34;99079.22;;;0.82;100.00
48077;BME280;33854;57.708;12.008;2023-02-28T08:49:00;99063.81;;;0.82;100.00
48077;BME280;33854;57.708;12.008;2023-02-28T08:51:27;99027.59;;;0.65;100.00
48077;BME280;33854;57.708;12.008;2023-02-28T08:53:54;99061.69;;;0.94;100.00
48077;BME280;33854;57.708;12.008;2023-02-28T08:56:20;99059.03;;;0.97;100.00
48077;BME280;33854;57.708;12.008;2023-02-28T08:58:48;99049.56;;;0.98;100.00
48077;BME280;33854;57.708;12.008;2023-02-28T09:01:22;99042.34;;;1.09;100.00
48077;BME280;33854;57.708;12.008;2023-02-28T09:03:50;99036.09;;;1.16;100.00
48077;BME280;33854;57.708;12.008;2023-02-28T09:06:17;99044.38;;;1.24;100.00
48077;BME280;33854;57.708;12.008;2023-02-28T09:08:42;99041.53;;;1.32;100.00
48077;BME280;33854;57.708;12.008;2023-02-28T09:11:09;99060.97;;;1.39;100.00
48077;BME280;33854;57.708;12.008;2023-02-28T09:13:34;99077.69;;;1.50;100.00
48077;BME280;33854;57.708;12.008;2023-02-28T09:16:01;99089.38;;;1.59;100.00
48077;BME280;33854;57.708;12.008;2023-02-28T09:18:28;99118.63;;;1.56;100.00
48077;BME280;33854;57.708;12.008;2023-02-28T09:20:54;99147.13;;;1.50;100.00
48077;BME280;33854;57.708;12.008;2023-02-28T09:23:20;99163.28;;;1.54;100.00
48077;BME280;33854;57.708;12.008;2023-02-28T09:25:47;99152.31;;;1.49;100.00
48077;BME280;33854;57.708;12.008;2023-02-28T09:28:12;99136.69;;;1.55;100.00
48077;BME280;33854;57.708;12.008;2023-02-28T09:30:41;99127.06;;;1.60;100.00
48077;BME280;33854;57.708;12.008;2023-02-28T09:33:06;99118.44;;;1.61;100.00
48077;BME280;33854;57.708;12.008;2023-02-28T09:35:31;99087.69;;;1.58;100.00
48077;BME280;33854;57.708;12.008;2023-02-28T09:37:57;99100.88;;;1.73;100.00
48077;BME280;33854;57.708;12.008;2023-02-28T09:40:25;99093.78;;;1.80;100.00
48077;BME280;33854;57.708;12.008;2023-02-28T09:42:53;99084.88;;;1.89;100.00
48077;BME280;33854;57.708;12.008;2023-02-28T09:45:33;99066.22;;;1.84;100.00
48077;BME280;33854;57.708;12.008;2023-02-28T09:48:12;99084.34;;;2.02;100.00
48077;BME280;33854;57.708;12.008;2023-02-28T09:50:46;99086.03;;;2.03;100.00
48077;BME280;33854;57.708;12.008;2023-02-28T09:53:25;99066.88;;;2.10;100.00
48077;BME280;33854;57.708;12.008;2023-02-28T09:55:55;99066.22;;;2.27;100.00
48077;BME280;33854;57.708;12.008;2023-02-28T09:58:31;99071.88;;;2.37;100.00
48077;BME280;33854;57.708;12.008;2023-02-28T10:01:04;99084.28;;;2.49;100.00
48077;BME280;33854;57.708;12.008;2023-02-28T10:03:43;99155.84;;;2.62;100.00
48077;BME280;33854;57.708;12.008;2023-02-28T10:06:20;99208.84;;;2.68;100.00
48077;BME280;33854;57.708;12.008;2023-02-28T10:08:56;99245.34;;;2.79;100.00
48077;BME280;33854;57.708;12.008;2023-02-28T10:11:27;99286.19;;;2.90;100.00
48077;BME280;33854;57.708;12.008;2023-02-28T10:16:48;99373.03;;;3.09;100.00
48077;BME280;33854;57.708;12.008;2023-02-28T10:22:11;99438.75;;;2.98;100.00
48077;BME280;33854;57.708;12.008;2023-02-28T10:24:41;99469.41;;;3.05;100.00
48077;BME280;33854;57.708;12.008;2023-02-28T10:27:21;99487.06;;;3.16;100.00
48077;BME280;33854;57.708;12.008;2023-02-28T10:30:00;99510.91;;;3.22;100.00
48077;BME280;33854;57.708;12.008;2023-02-28T10:32:30;99549.47;;;3.25;100.00
48077;BME280;33854;57.708;12.008;2023-02-28T10:35:00;99549.34;;;3.28;100.00
48077;BME280;33854;57.708;12.008;2023-02-28T10:37:27;99556.00;;;3.35;100.00
48077;BME280;33854;57.708;12.008;2023-02-28T10:39:53;99578.44;;;3.57;100.00
48077;BME280;33854;57.708;12.008;2023-02-28T10:42:27;99627.91;;;3.68;100.00
48077;BME280;33854;57.708;12.008;2023-02-28T10:45:09;99671.44;;;3.77;100.00
48077;BME280;33854;57.708;12.008;2023-02-28T10:47:53;99704.69;;;3.86;100.00
48077;BME280;33854;57.708;12.008;2023-02-28T10:50:50;99760.50;;;3.88;100.00
48077;BME280;33854;57.708;12.008;2023-02-28T10:55:58;99806.50;;;4.02;100.00
48077;BME280;33854;57.708;12.008;2023-02-28T10:58:29;99845.66;;;4.15;100.00
48077;BME280;33854;57.708;12.008;2023-02-28T11:00:55;99870.16;;;4.28;100.00
48077;BME280;33854;57.708;12.008;2023-02-28T11:03:29;99919.22;;;4.29;100.00
48077;BME280;33854;57.708;12.008;2023-02-28T11:05:56;99957.84;;;4.32;100.00
48077;BME280;33854;57.708;12.008;2023-02-28T11:08:22;99962.75;;;4.40;100.00
48077;BME280;33854;57.708;12.008;2023-02-28T11:10:59;99982.25;;;4.50;100.00
48077;BME280;33854;57.708;12.008;2023-02-28T11:13:33;100008.22;;;4.45;100.00
48077;BME280;33854;57.708;12.008;2023-02-28T11:16:02;100019.84;;;4.58;100.00
48077;BME280;33854;57.708;12.008;2023-02-28T11:18:31;100035.75;;;4.46;100.00
48077;BME280;33854;57.708;12.008;2023-02-28T11:21:00;100048.50;;;4.51;100.00
48077;BME280;33854;57.708;12.008;2023-02-28T11:23:30;100024.09;;;4.59;100.00
48077;BME280;33854;57.708;12.008;2023-02-28T11:26:00;100054.31;;;4.84;100.00
48077;BME280;33854;57.708;12.008;2023-02-28T11:28:31;100084.69;;;4.77;100.00
48077;BME280;33854;57.708;12.008;2023-02-28T11:31:02;100072.16;;;4.91;100.00
48077;BME280;33854;57.708;12.008;2023-02-28T11:33:37;100110.72;;;4.99;100.00
48077;BME280;33854;57.708;12.008;2023-02-28T11:36:12;100118.03;;;5.11;100.00
48077;BME280;33854;57.708;12.008;2023-02-28T11:38:38;100126.81;;;5.07;100.00
48077;BME280;33854;57.708;12.008;2023-02-28T11:41:16;100171.81;;;5.28;100.00
48077;BME280;33854;57.708;12.008;2023-02-28T11:44:43;100183.28;;;5.45;100.00
48077;BME280;33854;57.708;12.008;2023-02-28T11:46:52;100241.50;;;5.58;100.00
48077;BME280;33854;57.708;12.008;2023-02-28T11:57:35;100358.97;;;5.54;100.00
48077;BME280;33854;57.708;12.008;2023-02-28T12:00:19;100341.47;;;5.62;100.00
48077;BME280;33854;57.708;12.008;2023-02-28T12:06:16;100400.50;;;5.79;100.00
48077;BME280;33854;57.708;12.008;2023-02-28T12:25:28;100820.81;;;8.37;100.00
48077;BME280;33854;57.708;12.008;2023-02-28T12:28:01;100853.56;;;9.35;100.00
48077;BME280;33854;57.708;12.008;2023-02-28T12:30:32;100959.50;;;10.01;100.00
48077;BME280;33854;57.708;12.008;2023-02-28T12:33:09;101045.06;;;10.57;100.00
48077;BME280;33854;57.708;12.008;2023-02-28T12:35:56;101167.19;;;10.92;100.00
48077;BME280;33854;57.708;12.008;2023-02-28T12:38:26;101247.59;;;11.27;100.00
48077;BME280;33854;57.708;12.008;2023-02-28T12:41:13;101410.59;;;11.00;100.00
48077;BME280;33854;57.708;12.008;2023-02-28T12:43:47;101459.34;;;10.52;100.00
48077;BME280;33854;57.708;12.008;2023-02-28T12:46:21;101427.06;;;10.79;100.00
48077;BME280;33854;57.708;12.008;2023-02-28T12:48:55;101480.19;;;10.78;100.00
48077;BME280;33854;57.708;12.008;2023-02-28T12:51:22;101486.41;;;10.99;100.00
48077;BME280;33854;57.708;12.008;2023-02-28T12:57:00;101329.91;;;12.41;100.00
48077;BME280;33854;57.708;12.008;2023-02-28T12:59:54;101287.06;;;13.00;100.00
48077;BME280;33854;57.708;12.008;2023-02-28T13:10:44;101239.13;;;13.85;100.00
48077;BME280;33854;57.708;12.008;2023-02-28T13:13:18;101350.31;;;13.65;100.00
48077;BME280;33854;57.708;12.008;2023-02-28T13:16:06;101448.41;;;13.80;100.00
48077;BME280;33854;57.708;12.008;2023-02-28T13:18:39;101551.00;;;13.35;100.00
48077;BME280;33854;57.708;12.008;2023-02-28T13:21:27;101589.19;;;13.98;100.00
48077;BME280;33854;57.708;12.008;2023-02-28T13:34:35;102380.09;;;15.18;100.00
48077;BME280;33854;57.708;12.008;2023-02-28T13:39:57;102389.63;;;14.51;100.00
48077;BME280;33854;57.708;12.008;2023-02-28T13:47:54;102417.44;;;15.71;100.00
48077;BME280;33854;57.708;12.008;2023-02-28T13:56:10;102407.75;;;16.13;100.00
48077;BME280;33854;57.708;12.008;2023-02-28T14:07:09;102407.91;;;16.89;100.00
48077;BME280;33854;57.708;12.008;2023-02-28T14:09:46;102395.19;;;17.16;100.00
48077;BME280;33854;57.708;12.008;2023-02-28T14:12:53;102394.19;;;17.56;100.00
48077;BME280;33854;57.708;12.008;2023-02-28T14:18:15;102390.78;;;18.05;100.00
48077;BME280;33854;57.708;12.008;2023-02-28T14:20:43;102389.78;;;18.25;100.00
48077;BME280;33854;57.708;12.008;2023-02-28T14:23:21;102390.94;;;17.85;100.00
48077;BME280;33854;57.708;12.008;2023-02-28T14:27:17;102382.84;;;18.22;100.00
48077;BME280;33854;57.708;12.008;2023-02-28T14:29:44;102367.28;;;18.99;100.00
48077;BME280;33854;57.708;12.008;2023-02-28T14:34:55;102369.84;;;18.85;100.00
48077;BME280;33854;57.708;12.008;2023-02-28T14:37:27;102372.06;;;18.60;100.00
48077;BME280;33854;57.708;12.008;2023-02-28T14:39:54;102359.41;;;19.45;100.00
48077;BME280;33854;57.708;12.008;2023-02-28T14:42:32;102356.66;;;19.62;100.00
48077;BME280;33854;57.708;12.008;2023-02-28T14:44:58;102356.16;;;19.85;100.00
48077;BME280;33854;57.708;12.008;2023-02-28T14:47:28;102355.47;;;19.52;100.00
48077;BME280;33854;57.708;12.008;2023-02-28T14:49:57;102357.47;;;19.17;100.00
48077;BME280;33854;57.708;12.008;2023-02-28T14:52:27;102360.03;;;18.54;100.00
48077;BME280;33854;57.708;12.008;2023-02-28T14:55:05;102360.78;;;18.73;100.00
48077;BME280;33854;57.708;12.008;2023-02-28T14:57:40;102360.88;;;19.80;100.00
48077;BME280;33854;57.708;12.008;2023-02-28T15:02:47;102348.34;;;19.68;100.00